KBDR/BDR METAR and TAF weather

Enter ICAO airport designator
Station Type Date Time Source
KBDR METAR 2019/02/23 02:52 UTC NOAA

KBDR 230252Z 32003KT 10SM CLR 01/M06 A3043 RMK AO2 SLP304 T00111056 50003


Station Type Date Time Source
KBDR Decoded METAR 2019/02/23 02:52 UTC NOAA

SIKORSKY MEMORIAL AIRPORT, CT, United States (KBDR) 41-10N 073-08W 7M
Feb 22, 2019 - 09:52 PM EST / 2019.02.23 0252 UTC
Wind: from the NW (320 degrees) at 3 MPH (3 KT):0
Visibility: 10 mile(s):0
Sky conditions: clear
Temperature: 34.0 F (1.1 C)
Dew Point: 21.9 F (-5.6 C)
Relative Humidity: 60%
Pressure (altimeter): 30.43 in. Hg (1030 hPa)
Pressure tendency: 0.01 inches (0.3 hPa) higher than three hours ago
ob: KBDR 230252Z 32003KT 10SM CLR 01/M06 A3043 RMK AO2 SLP304 T00111056 50003
cycle: 3

Station Type Date Time Source
KBDR TAF 2019/02/23 02:09 UTC NOAA

TAF
AMD KBDR 230207Z 2302/2324 36004KT P6SM BKN250
FM231100 03004KT P6SM BKN250
FM231500 VRB04KT P6SM BKN250
FM231700 14005KT P6SM SCT025 BKN250


Example: see airport list